createdAt,value
2019-02-14T00:00:29.380Z,8.68
2019-02-14T00:01:37.986Z,8.75
2019-02-14T00:02:44.238Z,9.38
2019-02-14T00:03:50.154Z,9.13
2019-02-14T00:04:56.306Z,8.50
2019-02-14T00:06:02.445Z,9.25
2019-02-14T00:07:08.684Z,8.43
2019-02-14T00:08:14.908Z,8.78
2019-02-14T00:09:21.106Z,8.98
2019-02-14T00:10:27.259Z,8.55
2019-02-14T00:11:33.418Z,8.73
2019-02-14T00:12:39.554Z,8.43
2019-02-14T00:13:46.705Z,8.58
2019-02-14T00:14:52.794Z,8.90
2019-02-14T00:15:58.854Z,8.15
2019-02-14T00:17:04.986Z,8.83
2019-02-14T00:18:10.663Z,8.95
2019-02-14T00:19:16.933Z,8.15
2019-02-14T00:20:23.145Z,9.13
2019-02-14T00:21:29.387Z,8.20
2019-02-14T00:22:35.635Z,8.88
2019-02-14T00:23:41.865Z,8.65
2019-02-14T00:24:48.274Z,8.03
2019-02-14T00:25:54.895Z,9.40
2019-02-14T00:27:01.105Z,9.28
2019-02-14T00:28:07.295Z,9.55
2019-02-14T00:29:13.502Z,8.60
2019-02-14T00:30:22.835Z,8.85
2019-02-14T00:31:29.035Z,7.53
2019-02-14T00:32:35.434Z,7.60
2019-02-14T00:33:41.456Z,8.30
2019-02-14T00:34:47.577Z,8.58
2019-02-14T00:35:53.842Z,8.28
2019-02-14T00:37:00.223Z,8.45
2019-02-14T00:38:06.382Z,8.50
2019-02-14T00:39:12.547Z,7.58
2019-02-14T00:40:18.717Z,7.05
2019-02-14T00:41:24.772Z,8.85
2019-02-14T00:42:30.548Z,8.25
2019-02-14T00:43:36.782Z,8.38
2019-02-14T00:44:43.069Z,8.13
2019-02-14T00:45:49.583Z,8.15
2019-02-14T00:46:55.662Z,8.60
2019-02-14T00:48:01.822Z,8.78
2019-02-14T00:49:08.050Z,9.25
2019-02-14T00:50:14.286Z,7.25
2019-02-14T00:51:20.688Z,8.40
2019-02-14T00:52:26.807Z,8.73
2019-02-14T00:53:32.986Z,8.20
2019-02-14T00:54:39.202Z,8.75
2019-02-14T00:55:45.363Z,8.90
2019-02-14T00:56:51.779Z,9.53
2019-02-14T00:57:58.000Z,9.13
2019-02-14T00:59:04.234Z,8.30
2019-02-14T01:00:10.523Z,8.88
2019-02-14T01:01:16.672Z,8.05
2019-02-14T01:02:22.870Z,8.33
2019-02-14T01:03:29.021Z,8.40
2019-02-14T01:04:36.401Z,8.53
2019-02-14T01:05:42.534Z,8.65
2019-02-14T01:06:48.542Z,8.40
2019-02-14T01:07:54.644Z,8.33
2019-02-14T01:09:00.337Z,8.78
2019-02-14T01:10:06.822Z,9.18
2019-02-14T01:11:12.848Z,8.18
2019-02-14T01:12:19.253Z,9.40
2019-02-14T01:13:25.622Z,8.75
2019-02-14T01:14:31.926Z,8.80
2019-02-14T01:15:38.114Z,8.88
2019-02-14T01:16:44.200Z,8.63
2019-02-14T01:17:50.599Z,8.43
2019-02-14T01:18:56.677Z,9.48
2019-02-14T01:20:02.817Z,9.03
2019-02-14T01:21:08.494Z,9.15
2019-02-14T01:22:14.605Z,8.73
2019-02-14T01:23:21.886Z,9.45
2019-02-14T01:24:28.033Z,8.75
2019-02-14T01:25:34.317Z,9.25
2019-02-14T01:26:40.464Z,9.73
2019-02-14T01:27:46.592Z,9.40
2019-02-14T01:28:52.898Z,9.88
2019-02-14T01:29:59.042Z,8.48
2019-02-14T01:31:05.267Z,10.00
2019-02-14T01:32:11.355Z,9.30
2019-02-14T01:33:17.397Z,9.43
2019-02-14T01:34:23.168Z,8.80
2019-02-14T01:35:29.225Z,8.43
2019-02-14T01:36:35.397Z,8.45
2019-02-14T01:37:41.537Z,9.00
2019-02-14T01:38:47.690Z,8.98
2019-02-14T01:39:53.933Z,8.35
2019-02-14T01:41:00.125Z,9.13
2019-02-14T01:42:06.512Z,8.70
2019-02-14T01:43:12.712Z,8.50
2019-02-14T01:44:21.873Z,8.83
2019-02-14T01:45:28.057Z,9.48
2019-02-14T01:46:34.092Z,9.28
2019-02-14T01:47:40.134Z,8.23
2019-02-14T01:48:46.156Z,9.18
2019-02-14T01:49:53.310Z,9.08
2019-02-14T01:50:59.625Z,8.23
2019-02-14T01:52:05.899Z,8.45
2019-02-14T01:53:12.502Z,8.95
2019-02-14T01:54:18.734Z,8.70
2019-02-14T01:55:25.177Z,8.40
2019-02-14T01:56:31.329Z,7.75
2019-02-14T01:57:37.609Z,8.48
2019-02-14T01:58:43.725Z,8.53
2019-02-14T01:59:49.787Z,8.58
2019-02-14T02:00:55.851Z,7.65
2019-02-14T02:02:01.966Z,7.90
2019-02-14T02:03:08.145Z,8.08
2019-02-14T02:04:14.316Z,7.90
2019-02-14T02:05:20.450Z,9.05
2019-02-14T02:06:26.622Z,7.72
2019-02-14T02:07:32.844Z,8.13
2019-02-14T02:08:39.409Z,8.45
2019-02-14T02:09:45.726Z,7.97
2019-02-14T02:10:52.015Z,8.40
2019-02-14T02:11:57.842Z,8.45
2019-02-14T02:13:04.112Z,7.40
2019-02-14T02:14:10.164Z,8.73
2019-02-14T02:15:16.443Z,8.20
2019-02-14T02:16:22.674Z,7.67
2019-02-14T02:17:29.456Z,7.97
2019-02-14T02:18:37.386Z,7.37
2019-02-14T02:19:43.677Z,7.62
2019-02-14T02:20:49.840Z,7.60
2019-02-14T02:21:56.080Z,7.50
2019-02-14T02:23:02.272Z,7.37
2019-02-14T02:24:08.336Z,7.80
2019-02-14T02:25:14.088Z,7.58
2019-02-14T02:26:20.166Z,7.37
2019-02-14T02:27:26.313Z,7.50
2019-02-14T02:28:32.566Z,7.30
2019-02-14T02:29:38.732Z,7.30
2019-02-14T02:30:46.089Z,7.37
2019-02-14T02:31:52.265Z,7.80
2019-02-14T02:32:58.439Z,7.08
2019-02-14T02:34:04.636Z,8.70
2019-02-14T02:35:10.700Z,7.90
2019-02-14T02:36:16.904Z,6.58
2019-02-14T02:37:22.828Z,7.60
2019-02-14T02:38:29.073Z,6.90
2019-02-14T02:39:35.208Z,7.75
2019-02-14T02:40:41.269Z,7.97
2019-02-14T02:41:47.388Z,7.15
2019-02-14T02:42:53.617Z,7.62
2019-02-14T02:43:59.807Z,7.45
2019-02-14T02:45:06.813Z,7.28
2019-02-14T02:46:12.854Z,7.72
2019-02-14T02:47:19.077Z,7.92
2019-02-14T02:48:25.137Z,7.65
2019-02-14T02:49:31.276Z,7.12
2019-02-14T02:50:37.296Z,7.62
2019-02-14T02:51:43.060Z,7.53
2019-02-14T02:52:49.240Z,7.20
2019-02-14T02:53:55.597Z,8.03
2019-02-14T02:55:01.826Z,7.87
2019-02-14T02:56:08.158Z,8.23
2019-02-14T02:57:14.209Z,7.58
2019-02-14T02:58:20.574Z,6.87
2019-02-14T02:59:27.798Z,8.25
2019-02-14T03:00:33.890Z,7.60
2019-02-14T03:01:40.265Z,6.90
2019-02-14T03:02:46.248Z,6.33
2019-02-14T03:03:52.367Z,8.43
2019-02-14T03:04:58.742Z,7.37
2019-02-14T03:06:10.506Z,7.58
2019-02-14T03:07:12.717Z,7.35
2019-02-14T03:08:18.814Z,8.10
2019-02-14T03:09:25.214Z,7.62
2019-02-14T03:10:31.447Z,7.12
2019-02-14T03:11:38.398Z,7.60
2019-02-14T03:12:45.186Z,7.87
2019-02-14T03:13:52.462Z,8.43
2019-02-14T03:14:58.514Z,7.83
2019-02-14T03:16:04.279Z,8.15
2019-02-14T03:17:10.595Z,7.70
2019-02-14T03:18:16.885Z,7.55
2019-02-14T03:19:23.103Z,6.80
2019-02-14T03:20:29.226Z,8.40
2019-02-14T03:21:35.512Z,8.30
2019-02-14T03:22:41.745Z,6.87
2019-02-14T03:23:49.742Z,7.53
2019-02-14T03:24:55.479Z,7.12
2019-02-14T03:26:01.592Z,6.75
2019-02-14T03:27:08.823Z,7.40
2019-02-14T03:28:14.555Z,6.42
2019-02-14T03:29:20.617Z,7.08
2019-02-14T03:30:26.950Z,7.60
2019-02-14T03:31:33.107Z,6.55
2019-02-14T03:32:39.269Z,7.33
2019-02-14T03:33:45.362Z,6.85
2019-02-14T03:34:51.545Z,8.10
2019-02-14T03:35:57.715Z,7.90
2019-02-14T03:37:03.870Z,7.58
2019-02-14T03:38:09.935Z,7.15
2019-02-14T03:39:16.479Z,6.97
2019-02-14T03:40:22.721Z,7.53
2019-02-14T03:41:29.052Z,7.08
2019-02-14T03:42:35.266Z,7.60
2019-02-14T03:43:41.406Z,6.75
2019-02-14T03:44:47.526Z,7.87
2019-02-14T03:45:53.584Z,7.78
2019-02-14T03:46:59.784Z,7.17
2019-02-14T03:48:05.960Z,8.13
2019-02-14T03:49:12.151Z,7.45
2019-02-14T03:50:18.260Z,7.60
2019-02-14T03:51:24.332Z,6.75
2019-02-14T03:52:30.395Z,7.17
2019-02-14T03:53:36.303Z,6.70
2019-02-14T03:54:42.028Z,6.70
2019-02-14T03:55:47.762Z,6.80
2019-02-14T03:56:53.965Z,6.58
2019-02-14T03:58:00.338Z,7.47
2019-02-14T03:59:06.556Z,6.78
2019-02-14T04:00:14.389Z,7.80
2019-02-14T04:01:20.588Z,6.45
2019-02-14T04:02:26.539Z,6.60
2019-02-14T04:03:32.672Z,7.83
2019-02-14T04:04:38.786Z,7.42
2019-02-14T04:05:44.958Z,7.33
2019-02-14T04:06:50.974Z,7.25
2019-02-14T04:07:56.883Z,6.58
2019-02-14T04:09:04.116Z,7.62
2019-02-14T04:10:11.384Z,7.83
2019-02-14T04:11:17.445Z,7.55
2019-02-14T04:12:23.585Z,8.05
2019-02-14T04:13:29.674Z,7.47
2019-02-14T04:14:35.754Z,8.00
2019-02-14T04:15:42.081Z,8.48
2019-02-14T04:16:48.466Z,7.58
2019-02-14T04:17:54.634Z,8.30
2019-02-14T04:19:00.815Z,8.23
2019-02-14T04:20:07.010Z,9.23
2019-02-14T04:21:13.088Z,8.68
2019-02-14T04:22:19.307Z,9.10
2019-02-14T04:23:25.354Z,9.68
2019-02-14T04:24:31.647Z,10.75
2019-02-14T04:25:37.767Z,9.80
2019-02-14T04:26:43.926Z,9.55
2019-02-14T04:27:50.257Z,9.58
2019-02-14T04:28:56.511Z,9.45
2019-02-14T04:30:02.728Z,8.70
2019-02-14T04:31:08.787Z,8.63
2019-02-14T04:32:14.467Z,9.25
2019-02-14T04:33:20.609Z,9.25
2019-02-14T04:34:26.767Z,9.48
2019-02-14T04:35:32.957Z,7.42
2019-02-14T04:36:39.103Z,9.50
2019-02-14T04:37:45.212Z,8.00
2019-02-14T04:38:54.120Z,8.78
2019-02-14T04:40:00.262Z,8.10
2019-02-14T04:41:06.518Z,7.80
2019-02-14T04:42:12.776Z,8.00
2019-02-14T04:43:18.972Z,9.25
2019-02-14T04:44:25.005Z,7.10
2019-02-14T04:45:30.765Z,7.67
2019-02-14T04:46:37.127Z,7.33
2019-02-14T04:47:43.358Z,7.17
2019-02-14T04:48:49.833Z,7.53
2019-02-14T04:49:56.045Z,7.28
2019-02-14T04:51:02.493Z,7.90
2019-02-14T04:52:08.771Z,7.42
2019-02-14T04:53:15.012Z,8.08
2019-02-14T04:54:21.352Z,7.85
2019-02-14T04:55:27.525Z,7.30
2019-02-14T04:56:33.655Z,8.08
2019-02-14T04:57:39.797Z,8.03
2019-02-14T04:58:45.989Z,7.65
2019-02-14T04:59:52.229Z,6.90
2019-02-14T05:00:58.529Z,7.53
2019-02-14T05:02:04.665Z,7.53
2019-02-14T05:03:10.916Z,7.50
2019-02-14T05:04:16.945Z,7.40
2019-02-14T05:05:23.125Z,7.50
2019-02-14T05:06:29.255Z,6.85
2019-02-14T05:07:36.867Z,7.60
2019-02-14T05:08:42.937Z,7.78
2019-02-14T05:09:48.834Z,6.80
2019-02-14T05:10:54.905Z,7.62
2019-02-14T05:12:00.936Z,7.78
2019-02-14T05:13:07.208Z,7.97
2019-02-14T05:14:13.438Z,7.58
2019-02-14T05:15:19.751Z,7.97
2019-02-14T05:16:26.115Z,7.35
2019-02-14T05:17:33.829Z,8.53
2019-02-14T05:18:40.235Z,7.95
2019-02-14T05:19:46.336Z,7.50
2019-02-14T05:20:52.493Z,7.25
2019-02-14T05:21:58.839Z,7.83
2019-02-14T05:23:05.186Z,8.43
2019-02-14T05:24:11.267Z,8.15
2019-02-14T05:25:17.492Z,7.87
2019-02-14T05:26:23.796Z,8.50
2019-02-14T05:27:29.997Z,8.18
2019-02-14T05:28:36.303Z,9.03
2019-02-14T05:29:42.496Z,8.15
2019-02-14T05:30:48.707Z,8.65
2019-02-14T05:31:54.749Z,8.60
2019-02-14T05:33:00.840Z,9.43
2019-02-14T05:34:06.774Z,8.48
2019-02-14T05:35:13.585Z,8.63
2019-02-14T05:36:19.578Z,9.10
2019-02-14T05:37:25.738Z,8.35
2019-02-14T05:38:31.856Z,8.73
2019-02-14T05:39:37.926Z,8.80
2019-02-14T05:40:44.042Z,8.30
2019-02-14T05:41:50.087Z,7.45
2019-02-14T05:42:56.081Z,8.53
2019-02-14T05:44:02.164Z,8.18
2019-02-14T05:45:09.042Z,7.40
2019-02-14T05:46:15.159Z,7.35
2019-02-14T05:47:21.433Z,7.05
2019-02-14T05:48:27.466Z,6.95
2019-02-14T05:49:33.649Z,7.40
2019-02-14T05:50:39.816Z,6.60
2019-02-14T05:51:45.924Z,6.80
2019-02-14T05:52:52.084Z,6.75
2019-02-14T05:53:58.419Z,6.45
2019-02-14T05:55:04.942Z,7.05
2019-02-14T05:56:11.049Z,7.20
2019-02-14T05:57:17.164Z,6.70
2019-02-14T05:58:23.478Z,6.60
2019-02-14T05:59:29.681Z,6.12
2019-02-14T06:00:35.918Z,6.80
2019-02-14T06:01:42.174Z,6.72
2019-02-14T06:02:48.407Z,6.08
2019-02-14T06:03:54.492Z,6.53
2019-02-14T06:05:00.860Z,6.83
2019-02-14T06:06:07.204Z,7.00
2019-02-14T06:07:13.663Z,7.72
2019-02-14T06:08:19.914Z,6.72
2019-02-14T06:09:26.223Z,7.45
2019-02-14T06:10:32.420Z,6.97
2019-02-14T06:11:38.805Z,7.42
2019-02-14T06:12:45.241Z,7.67
2019-02-14T06:13:51.313Z,7.70
2019-02-14T06:14:57.101Z,8.20
2019-02-14T06:16:03.265Z,8.48
2019-02-14T06:17:09.374Z,7.15
2019-02-14T06:18:15.818Z,7.37
2019-02-14T06:19:22.134Z,9.40
2019-02-14T06:20:28.382Z,9.15
2019-02-14T06:21:34.728Z,8.75
2019-02-14T06:22:40.912Z,8.93
2019-02-14T06:23:47.315Z,8.50
2019-02-14T06:24:53.668Z,8.70
2019-02-14T06:26:01.530Z,7.78
2019-02-14T06:27:07.444Z,8.10
2019-02-14T06:28:13.424Z,7.35
2019-02-14T06:29:22.543Z,8.10
2019-02-14T06:30:28.967Z,11.35
2019-02-14T06:31:37.512Z,8.43
2019-02-14T06:32:44.471Z,8.50
2019-02-14T06:33:57.414Z,7.92
2019-02-14T06:35:05.236Z,6.90
2019-02-14T06:36:11.318Z,7.00
2019-02-14T06:37:17.309Z,7.58
2019-02-14T06:38:23.490Z,9.03
2019-02-14T06:39:29.691Z,7.53
2019-02-14T06:40:35.681Z,7.90
2019-02-14T06:41:49.388Z,7.20
2019-02-14T06:42:56.092Z,8.15
2019-02-14T06:44:02.111Z,7.85
2019-02-14T06:45:09.709Z,9.18
2019-02-14T06:46:16.396Z,9.93
2019-02-14T06:47:22.657Z,10.15
2019-02-14T06:48:28.734Z,10.38
2019-02-14T06:49:35.164Z,9.60
2019-02-14T06:50:41.223Z,10.40
2019-02-14T06:51:47.318Z,10.40
2019-02-14T06:52:53.566Z,11.85
2019-02-14T06:53:59.557Z,11.50
2019-02-14T06:55:05.846Z,12.45
2019-02-14T06:56:11.897Z,11.53
2019-02-14T06:57:18.096Z,11.68
2019-02-14T06:58:24.173Z,11.70
2019-02-14T06:59:30.244Z,10.03
2019-02-14T07:00:36.526Z,10.23
2019-02-14T07:01:42.489Z,9.28
2019-02-14T07:02:48.585Z,8.90
2019-02-14T07:03:54.708Z,8.93
2019-02-14T07:05:00.866Z,9.88
2019-02-14T07:06:06.982Z,8.88
2019-02-14T07:07:18.684Z,9.38
2019-02-14T07:08:20.830Z,9.88
2019-02-14T07:09:27.010Z,10.10
2019-02-14T07:10:33.245Z,9.18
2019-02-14T07:11:39.585Z,9.13
2019-02-14T07:12:45.681Z,8.95
2019-02-14T07:13:51.903Z,8.35
2019-02-14T07:14:57.836Z,9.13
2019-02-14T07:16:04.148Z,9.70
2019-02-14T07:17:10.188Z,8.73
2019-02-14T07:18:16.334Z,9.03
2019-02-14T07:19:22.648Z,11.43
2019-02-14T07:20:28.806Z,10.88
2019-02-14T07:21:35.058Z,10.72
2019-02-14T07:22:41.295Z,10.93
2019-02-14T07:23:47.490Z,10.70
2019-02-14T07:24:53.785Z,10.88
2019-02-14T07:26:01.101Z,11.30
2019-02-14T07:27:07.435Z,10.78
2019-02-14T07:28:13.548Z,10.95
2019-02-14T07:29:19.660Z,10.45
2019-02-14T07:30:25.949Z,11.40
2019-02-14T07:31:32.033Z,9.33
2019-02-14T07:32:38.097Z,10.38
2019-02-14T07:33:44.288Z,9.25
2019-02-14T07:34:50.411Z,10.45
2019-02-14T07:35:56.557Z,9.23
2019-02-14T07:37:02.706Z,9.93
2019-02-14T07:38:10.017Z,10.35
2019-02-14T07:39:16.317Z,10.03
2019-02-14T07:40:22.391Z,9.45
2019-02-14T07:41:28.633Z,9.50
2019-02-14T07:42:34.873Z,10.55
2019-02-14T07:43:41.105Z,8.85
2019-02-14T07:44:47.324Z,9.58
2019-02-14T07:45:53.579Z,10.08
2019-02-14T07:46:59.810Z,8.70
2019-02-14T07:48:05.979Z,9.20
2019-02-14T07:49:12.596Z,8.30
2019-02-14T07:50:18.860Z,9.55
2019-02-14T07:51:24.938Z,8.23
2019-02-14T07:52:31.106Z,8.23
2019-02-14T07:53:37.282Z,8.03
2019-02-14T07:54:43.545Z,8.13
2019-02-14T07:55:50.835Z,7.33
2019-02-14T07:56:57.204Z,6.83
2019-02-14T07:58:03.465Z,6.85
2019-02-14T07:59:10.612Z,8.00
2019-02-14T08:00:17.022Z,7.70
2019-02-14T08:01:23.242Z,8.23
2019-02-14T08:02:30.915Z,7.17
2019-02-14T08:03:37.021Z,6.60
2019-02-14T08:04:42.869Z,6.78
2019-02-14T08:05:50.163Z,6.12
2019-02-14T08:06:56.274Z,6.92
2019-02-14T08:08:02.505Z,7.12
2019-02-14T08:09:08.668Z,6.08
2019-02-14T08:10:15.142Z,6.72
2019-02-14T08:11:21.252Z,6.35
2019-02-14T08:12:27.417Z,6.10
2019-02-14T08:13:33.504Z,6.25
2019-02-14T08:14:39.530Z,6.72
2019-02-14T08:15:45.614Z,7.42
2019-02-14T08:16:52.752Z,7.08
2019-02-14T08:17:58.668Z,6.20
2019-02-14T08:19:05.035Z,6.40
2019-02-14T08:20:11.546Z,8.25
2019-02-14T08:21:17.943Z,6.33
2019-02-14T08:22:24.258Z,6.83
2019-02-14T08:23:30.397Z,5.92
2019-02-14T08:24:36.609Z,6.62
2019-02-14T08:25:42.989Z,7.60
2019-02-14T08:26:49.289Z,6.95
2019-02-14T08:27:55.496Z,6.70
2019-02-14T08:29:03.958Z,6.97
2019-02-14T08:30:12.098Z,6.08
2019-02-14T08:31:18.314Z,6.08
2019-02-14T08:32:24.425Z,6.40
2019-02-14T08:33:30.609Z,5.53
2019-02-14T08:34:36.685Z,5.58
2019-02-14T08:35:42.834Z,5.67
2019-02-14T08:36:49.064Z,6.72
2019-02-14T08:37:56.010Z,6.22
2019-02-14T08:39:02.288Z,6.95
2019-02-14T08:40:12.039Z,6.03
2019-02-14T08:41:18.186Z,7.10
2019-02-14T08:42:25.661Z,7.28
2019-02-14T08:43:31.756Z,6.58
2019-02-14T08:44:37.894Z,7.42
2019-02-14T08:45:44.012Z,6.53
2019-02-14T08:46:50.176Z,7.33
2019-02-14T08:47:56.331Z,6.87
2019-02-14T08:49:02.440Z,7.50
2019-02-14T08:50:08.956Z,8.13
2019-02-14T08:51:15.232Z,7.00
2019-02-14T08:52:21.475Z,7.08
2019-02-14T08:53:27.709Z,9.25
2019-02-14T08:54:33.770Z,8.35
2019-02-14T08:55:40.017Z,8.48
2019-02-14T08:56:46.245Z,9.35
2019-02-14T08:57:52.501Z,8.35
2019-02-14T08:58:58.661Z,8.43
2019-02-14T09:00:05.375Z,7.45
2019-02-14T09:01:11.873Z,7.00
2019-02-14T09:02:17.964Z,6.60
2019-02-14T09:03:24.148Z,6.17
2019-02-14T09:04:30.354Z,6.60
2019-02-14T09:05:36.473Z,6.15
2019-02-14T09:06:42.646Z,7.92
2019-02-14T09:07:54.589Z,7.40
2019-02-14T09:08:56.342Z,6.42
2019-02-14T09:10:02.490Z,6.58
2019-02-14T09:11:08.671Z,6.62
2019-02-14T09:12:14.829Z,7.47
2019-02-14T09:13:21.033Z,7.00
2019-02-14T09:14:27.206Z,6.58
2019-02-14T09:15:33.340Z,6.47
2019-02-14T09:16:39.334Z,6.42
2019-02-14T09:17:45.396Z,6.62
2019-02-14T09:18:51.654Z,7.35
2019-02-14T09:19:57.577Z,5.90
2019-02-14T09:21:03.837Z,6.42
2019-02-14T09:22:09.993Z,6.20
2019-02-14T09:23:17.822Z,6.62
2019-02-14T09:24:24.120Z,5.80
2019-02-14T09:25:30.344Z,6.00
2019-02-14T09:26:36.827Z,5.95
2019-02-14T09:27:43.006Z,6.62
2019-02-14T09:28:49.177Z,6.60
2019-02-14T09:29:55.317Z,6.03
2019-02-14T09:31:01.418Z,5.92
2019-02-14T09:32:07.971Z,5.90
2019-02-14T09:33:14.020Z,6.20
2019-02-14T09:34:20.527Z,6.83
2019-02-14T09:35:27.202Z,7.40
2019-02-14T09:36:34.440Z,6.47
2019-02-14T09:37:40.816Z,5.67
2019-02-14T09:38:47.165Z,7.12
2019-02-14T09:39:53.385Z,7.20
2019-02-14T09:40:59.839Z,5.90
2019-02-14T09:42:05.789Z,5.58
2019-02-14T09:43:11.873Z,5.75
2019-02-14T09:44:18.023Z,5.55
2019-02-14T09:45:24.077Z,6.12
2019-02-14T09:46:30.137Z,5.58
2019-02-14T09:47:36.185Z,6.72
2019-02-14T09:48:42.448Z,6.58
2019-02-14T09:49:48.565Z,5.97
2019-02-14T09:50:54.659Z,5.45
2019-02-14T09:52:00.681Z,7.45
2019-02-14T09:53:06.885Z,6.67
2019-02-14T09:54:12.998Z,5.67
2019-02-14T09:55:19.120Z,6.33
2019-02-14T09:56:25.346Z,6.15
2019-02-14T09:57:31.643Z,8.00
2019-02-14T09:58:37.866Z,6.28
2019-02-14T09:59:44.000Z,7.28
2019-02-14T10:00:50.237Z,12.10
2019-02-14T10:01:57.251Z,8.28
2019-02-14T10:03:03.837Z,5.92
2019-02-14T10:04:09.846Z,6.10
2019-02-14T10:05:16.019Z,5.10
2019-02-14T10:06:22.111Z,5.47
2019-02-14T10:07:28.201Z,5.40
2019-02-14T10:08:34.353Z,6.08
2019-02-14T10:09:40.696Z,4.62
2019-02-14T10:10:47.632Z,5.37
2019-02-14T10:11:53.837Z,5.37
2019-02-14T10:12:59.991Z,5.60
2019-02-14T10:14:06.247Z,6.70
2019-02-14T10:15:12.697Z,6.92
2019-02-14T10:16:19.962Z,6.33
2019-02-14T10:17:26.328Z,6.87
2019-02-14T10:18:32.810Z,6.62
2019-02-14T10:19:38.905Z,6.12
2019-02-14T10:20:44.955Z,6.55
2019-02-14T10:21:51.375Z,5.97
2019-02-14T10:22:57.773Z,6.28
2019-02-14T10:24:03.846Z,5.97
2019-02-14T10:25:10.525Z,6.15
2019-02-14T10:26:16.864Z,5.47
2019-02-14T10:27:24.417Z,5.60
2019-02-14T10:28:30.587Z,6.53
2019-02-14T10:29:45.399Z,5.60
2019-02-14T10:30:51.600Z,6.67
2019-02-14T10:31:58.027Z,5.28
2019-02-14T10:33:04.188Z,5.95
2019-02-14T10:34:10.942Z,6.05
2019-02-14T10:35:17.251Z,6.50
2019-02-14T10:36:23.402Z,6.75
2019-02-14T10:37:31.447Z,6.72
2019-02-14T10:38:37.535Z,5.90
2019-02-14T10:39:43.562Z,6.40
2019-02-14T10:40:49.654Z,6.35
2019-02-14T10:41:55.757Z,5.92
2019-02-14T10:43:01.925Z,6.20
2019-02-14T10:44:07.981Z,6.58
2019-02-14T10:45:15.917Z,5.67
2019-02-14T10:46:22.070Z,5.87
2019-02-14T10:47:28.071Z,5.55
2019-02-14T10:48:34.182Z,6.25
2019-02-14T10:49:41.293Z,6.62
2019-02-14T10:50:47.407Z,5.72
2019-02-14T10:51:53.621Z,5.47
2019-02-14T10:52:59.728Z,5.35
2019-02-14T10:54:05.992Z,5.35
2019-02-14T10:55:12.709Z,5.45
2019-02-14T10:56:18.699Z,5.20
2019-02-14T10:57:24.752Z,5.47
2019-02-14T10:58:30.924Z,5.92
2019-02-14T10:59:37.205Z,5.87
2019-02-14T11:00:45.234Z,7.20
2019-02-14T11:01:51.413Z,5.60
2019-02-14T11:02:57.737Z,6.15
2019-02-14T11:04:04.165Z,5.62
2019-02-14T11:05:10.436Z,6.33
2019-02-14T11:06:16.589Z,6.75
2019-02-14T11:07:22.877Z,6.37
2019-02-14T11:08:31.780Z,8.98
2019-02-14T11:09:37.650Z,7.30
2019-02-14T11:10:44.031Z,8.10
2019-02-14T11:11:50.032Z,7.10
2019-02-14T11:12:56.102Z,5.62
2019-02-14T11:14:02.334Z,6.35
2019-02-14T11:15:10.882Z,6.20
2019-02-14T11:16:17.256Z,6.22
2019-02-14T11:17:23.669Z,6.90
2019-02-14T11:18:29.885Z,6.33
2019-02-14T11:19:36.058Z,5.83
2019-02-14T11:20:42.148Z,6.58
2019-02-14T11:21:48.392Z,6.28
2019-02-14T11:22:54.907Z,5.35
2019-02-14T11:24:01.179Z,6.05
2019-02-14T11:25:08.714Z,5.70
2019-02-14T11:26:14.935Z,6.58
2019-02-14T11:27:21.102Z,6.47
2019-02-14T11:28:28.345Z,5.97
2019-02-14T11:29:34.567Z,5.95
2019-02-14T11:30:40.761Z,5.58
2019-02-14T11:31:46.870Z,6.30
2019-02-14T11:32:53.116Z,5.45
2019-02-14T11:33:59.285Z,6.00
2019-02-14T11:35:05.765Z,5.47
2019-02-14T11:36:11.768Z,6.03
2019-02-14T11:37:17.837Z,6.28
2019-02-14T11:38:24.392Z,6.85
2019-02-14T11:39:31.777Z,6.90
2019-02-14T11:40:38.075Z,6.17
2019-02-14T11:41:44.296Z,6.25
2019-02-14T11:42:50.473Z,6.15
2019-02-14T11:43:56.792Z,8.15
2019-02-14T11:45:03.082Z,9.20
2019-02-14T11:46:09.191Z,8.83
2019-02-14T11:47:15.417Z,9.15
2019-02-14T11:48:21.725Z,8.45
2019-02-14T11:49:27.987Z,9.18
2019-02-14T11:50:34.205Z,9.15
2019-02-14T11:51:40.473Z,9.05
2019-02-14T11:52:46.806Z,8.98
2019-02-14T11:53:53.107Z,8.20
2019-02-14T11:54:59.343Z,7.83
2019-02-14T11:56:05.487Z,7.58
2019-02-14T11:57:11.658Z,6.80
2019-02-14T11:58:17.796Z,7.00
2019-02-14T11:59:23.965Z,7.28
2019-02-14T12:00:30.644Z,8.38
2019-02-14T12:01:36.722Z,6.85
2019-02-14T12:02:42.893Z,6.12
2019-02-14T12:03:49.091Z,6.33
2019-02-14T12:04:55.223Z,5.70
2019-02-14T12:06:01.376Z,6.03
2019-02-14T12:07:07.797Z,7.12
2019-02-14T12:08:13.905Z,7.05
2019-02-14T12:09:20.507Z,6.40
2019-02-14T12:10:26.618Z,7.70
2019-02-14T12:11:32.656Z,7.08
2019-02-14T12:12:38.796Z,7.40
2019-02-14T12:13:44.842Z,6.70
2019-02-14T12:14:50.753Z,7.10
2019-02-14T12:15:56.817Z,7.08
2019-02-14T12:17:02.944Z,7.42
2019-02-14T12:18:09.103Z,6.90
2019-02-14T12:19:15.206Z,6.80
2019-02-14T12:20:21.418Z,6.10
2019-02-14T12:21:28.722Z,5.92
2019-02-14T12:22:34.828Z,5.85
2019-02-14T12:23:41.164Z,7.00
2019-02-14T12:24:47.567Z,6.72
2019-02-14T12:25:53.887Z,7.00
2019-02-14T12:27:00.337Z,5.70
2019-02-14T12:28:06.227Z,7.33
2019-02-14T12:29:12.659Z,7.25
2019-02-14T12:30:18.816Z,7.00
2019-02-14T12:31:25.030Z,6.70
2019-02-14T12:32:31.146Z,8.25
2019-02-14T12:33:37.286Z,6.75
2019-02-14T12:34:43.509Z,6.50
2019-02-14T12:35:50.615Z,7.62
2019-02-14T12:36:56.824Z,7.35
2019-02-14T12:38:02.969Z,6.05
2019-02-14T12:39:11.579Z,7.03
2019-02-14T12:40:17.134Z,6.22
2019-02-14T12:41:23.486Z,7.15
2019-02-14T12:42:29.793Z,6.58
2019-02-14T12:43:36.026Z,5.92
2019-02-14T12:44:42.581Z,5.37
2019-02-14T12:45:48.742Z,5.85
2019-02-14T12:46:54.907Z,5.55
2019-02-14T12:48:01.094Z,5.70
2019-02-14T12:49:07.519Z,5.35
2019-02-14T12:50:14.056Z,6.30
2019-02-14T12:51:20.306Z,6.30
2019-02-14T12:52:26.310Z,6.62
2019-02-14T12:53:32.605Z,6.75
2019-02-14T12:54:38.857Z,6.97
2019-02-14T12:55:45.106Z,6.90
2019-02-14T12:56:51.298Z,6.70
2019-02-14T12:57:57.276Z,6.90
2019-02-14T12:59:03.477Z,6.20
2019-02-14T13:00:15.915Z,6.17
2019-02-14T13:01:22.177Z,5.87
2019-02-14T13:02:28.344Z,5.97
2019-02-14T13:03:34.536Z,5.97
2019-02-14T13:04:40.755Z,7.15
2019-02-14T13:05:46.956Z,6.47
2019-02-14T13:06:53.041Z,6.33
2019-02-14T13:07:59.227Z,6.55
2019-02-14T13:09:06.615Z,6.90
2019-02-14T13:10:13.296Z,6.20
2019-02-14T13:11:19.761Z,6.10
2019-02-14T13:12:25.815Z,6.08
2019-02-14T13:13:32.010Z,6.20
2019-02-14T13:14:38.112Z,6.28
2019-02-14T13:15:44.117Z,6.85
2019-02-14T13:16:49.998Z,6.78
2019-02-14T13:17:56.017Z,5.87
2019-02-14T13:19:02.366Z,7.25
2019-02-14T13:20:08.633Z,6.83
2019-02-14T13:21:14.929Z,5.87
2019-02-14T13:22:21.125Z,6.05
2019-02-14T13:23:27.278Z,6.65
2019-02-14T13:24:33.461Z,6.05
2019-02-14T13:25:39.570Z,6.55
2019-02-14T13:26:45.686Z,6.70
2019-02-14T13:27:51.775Z,5.87
2019-02-14T13:28:57.960Z,6.12
2019-02-14T13:30:04.356Z,6.60
2019-02-14T13:31:10.722Z,7.35
2019-02-14T13:32:17.012Z,6.72
2019-02-14T13:33:23.109Z,7.25
2019-02-14T13:34:29.597Z,8.08
2019-02-14T13:35:35.871Z,8.05
2019-02-14T13:36:42.086Z,8.05
2019-02-14T13:37:49.379Z,8.18
2019-02-14T13:38:55.613Z,8.65
2019-02-14T13:40:02.039Z,8.70
2019-02-14T13:41:08.114Z,7.62
2019-02-14T13:42:15.127Z,7.60
2019-02-14T13:43:21.236Z,7.47
2019-02-14T13:44:27.388Z,8.15
2019-02-14T13:45:33.509Z,7.12
2019-02-14T13:46:39.694Z,7.92
2019-02-14T13:47:45.909Z,8.00
2019-02-14T13:48:52.112Z,8.50
2019-02-14T13:49:58.204Z,7.97
2019-02-14T13:51:04.309Z,7.47
2019-02-14T13:52:10.364Z,6.95
2019-02-14T13:53:16.627Z,8.35
2019-02-14T13:54:23.076Z,8.05
2019-02-14T13:55:29.496Z,7.90
2019-02-14T13:56:35.646Z,8.03
2019-02-14T13:57:42.306Z,7.60
2019-02-14T13:58:48.515Z,7.67
2019-02-14T13:59:54.751Z,8.15
2019-02-14T14:01:00.826Z,8.93
2019-02-14T14:02:07.246Z,7.92
2019-02-14T14:03:13.521Z,8.58
2019-02-14T14:04:19.778Z,7.97
2019-02-14T14:05:26.182Z,8.33
2019-02-14T14:06:32.609Z,8.15
2019-02-14T14:07:40.688Z,8.63
2019-02-14T14:08:46.958Z,7.97
2019-02-14T14:09:52.989Z,8.33
2019-02-14T14:10:59.097Z,8.00
2019-02-14T14:12:05.276Z,8.68
2019-02-14T14:13:11.466Z,7.95
2019-02-14T14:14:17.686Z,7.80
2019-02-14T14:15:26.365Z,8.23
2019-02-14T14:16:32.559Z,8.13
2019-02-14T14:17:38.710Z,8.83
2019-02-14T14:18:44.966Z,7.65
2019-02-14T14:19:51.098Z,8.40
2019-02-14T14:20:57.162Z,8.55
2019-02-14T14:22:03.308Z,7.90
2019-02-14T14:23:09.463Z,8.20
2019-02-14T14:24:15.653Z,8.33
2019-02-14T14:25:21.730Z,8.35
2019-02-14T14:26:27.887Z,9.40
2019-02-14T14:27:34.231Z,8.25
2019-02-14T14:28:40.599Z,8.93
2019-02-14T14:29:46.660Z,9.08
2019-02-14T14:30:52.957Z,9.13
2019-02-14T14:31:59.306Z,9.50
2019-02-14T14:33:05.311Z,8.75
2019-02-14T14:34:15.913Z,9.13
2019-02-14T14:35:22.025Z,9.68
2019-02-14T14:36:28.089Z,9.15
2019-02-14T14:37:34.526Z,8.78
2019-02-14T14:38:40.600Z,8.50
2019-02-14T14:39:48.059Z,8.90
2019-02-14T14:40:54.261Z,9.23
2019-02-14T14:42:00.777Z,9.15